sensor_id;sensor_type;location;lat;lon;timestamp;temperature;humidity
47845;DHT22;33605;48.822;8.796;2023-12-04T00:01:16;0.70;36.90
47845;DHT22;33605;48.822;8.796;2023-12-04T00:03:42;0.70;36.90
47845;DHT22;33605;48.822;8.796;2023-12-04T00:06:11;0.70;36.90
47845;DHT22;33605;48.822;8.796;2023-12-04T00:08:37;0.70;36.90
47845;DHT22;33605;48.822;8.796;2023-12-04T00:11:04;0.70;36.90
47845;DHT22;33605;48.822;8.796;2023-12-04T00:13:30;0.70;36.80
47845;DHT22;33605;48.822;8.796;2023-12-04T00:15:56;0.70;36.80
47845;DHT22;33605;48.822;8.796;2023-12-04T00:18:22;0.70;36.80
47845;DHT22;33605;48.822;8.796;2023-12-04T00:20:48;0.70;36.80
47845;DHT22;33605;48.822;8.796;2023-12-04T00:23:13;0.70;36.80
47845;DHT22;33605;48.822;8.796;2023-12-04T00:25:39;0.70;36.80
47845;DHT22;33605;48.822;8.796;2023-12-04T00:28:04;0.60;36.70
47845;DHT22;33605;48.822;8.796;2023-12-04T00:30:30;0.60;36.70
47845;DHT22;33605;48.822;8.796;2023-12-04T00:32:56;0.60;36.70
47845;DHT22;33605;48.822;8.796;2023-12-04T00:35:21;0.60;37.40
47845;DHT22;33605;48.822;8.796;2023-12-04T00:37:47;0.60;36.80
47845;DHT22;33605;48.822;8.796;2023-12-04T00:40:13;0.60;36.90
47845;DHT22;33605;48.822;8.796;2023-12-04T00:42:39;0.60;36.90
47845;DHT22;33605;48.822;8.796;2023-12-04T00:45:05;0.60;37.00
47845;DHT22;33605;48.822;8.796;2023-12-04T00:47:31;0.60;37.00
47845;DHT22;33605;48.822;8.796;2023-12-04T00:49:56;0.60;37.10
47845;DHT22;33605;48.822;8.796;2023-12-04T00:52:22;0.60;37.10
47845;DHT22;33605;48.822;8.796;2023-12-04T00:54:48;0.60;37.20
47845;DHT22;33605;48.822;8.796;2023-12-04T00:57:14;0.50;37.10
47845;DHT22;33605;48.822;8.796;2023-12-04T00:59:39;0.50;37.10
47845;DHT22;33605;48.822;8.796;2023-12-04T01:02:06;0.50;37.10
47845;DHT22;33605;48.822;8.796;2023-12-04T01:04:32;0.50;37.20
47845;DHT22;33605;48.822;8.796;2023-12-04T01:06:58;0.50;37.20
47845;DHT22;33605;48.822;8.796;2023-12-04T01:09:23;0.50;37.20
47845;DHT22;33605;48.822;8.796;2023-12-04T01:11:53;0.50;37.20
47845;DHT22;33605;48.822;8.796;2023-12-04T01:14:20;0.50;37.30
47845;DHT22;33605;48.822;8.796;2023-12-04T01:16:46;0.40;37.30
47845;DHT22;33605;48.822;8.796;2023-12-04T01:19:11;0.40;37.30
47845;DHT22;33605;48.822;8.796;2023-12-04T01:21:37;0.40;37.40
47845;DHT22;33605;48.822;8.796;2023-12-04T01:24:03;0.40;37.40
47845;DHT22;33605;48.822;8.796;2023-12-04T01:26:29;0.30;37.40
47845;DHT22;33605;48.822;8.796;2023-12-04T01:28:55;0.40;37.50
47845;DHT22;33605;48.822;8.796;2023-12-04T01:31:20;0.40;37.60
47845;DHT22;33605;48.822;8.796;2023-12-04T01:33:46;0.30;37.50
47845;DHT22;33605;48.822;8.796;2023-12-04T01:36:12;0.30;37.50
47845;DHT22;33605;48.822;8.796;2023-12-04T01:38:38;0.30;37.50
47845;DHT22;33605;48.822;8.796;2023-12-04T01:41:04;0.30;37.50
47845;DHT22;33605;48.822;8.796;2023-12-04T01:43:30;0.30;37.50
47845;DHT22;33605;48.822;8.796;2023-12-04T01:45:56;0.30;37.50
47845;DHT22;33605;48.822;8.796;2023-12-04T01:48:22;0.30;37.50
47845;DHT22;33605;48.822;8.796;2023-12-04T01:50:48;0.30;37.50
47845;DHT22;33605;48.822;8.796;2023-12-04T01:53:14;0.30;37.50
47845;DHT22;33605;48.822;8.796;2023-12-04T01:55:40;0.30;37.50
47845;DHT22;33605;48.822;8.796;2023-12-04T01:58:07;0.30;37.60
47845;DHT22;33605;48.822;8.796;2023-12-04T02:00:32;0.20;37.50
47845;DHT22;33605;48.822;8.796;2023-12-04T02:02:58;0.30;37.70
47845;DHT22;33605;48.822;8.796;2023-12-04T02:05:26;0.20;37.70
47845;DHT22;33605;48.822;8.796;2023-12-04T02:07:52;0.20;37.70
47845;DHT22;33605;48.822;8.796;2023-12-04T02:10:18;0.20;37.70
47845;DHT22;33605;48.822;8.796;2023-12-04T02:12:44;0.20;37.70
47845;DHT22;33605;48.822;8.796;2023-12-04T02:15:10;0.20;37.80
47845;DHT22;33605;48.822;8.796;2023-12-04T02:17:36;0.20;37.70
47845;DHT22;33605;48.822;8.796;2023-12-04T02:20:02;0.20;37.70
47845;DHT22;33605;48.822;8.796;2023-12-04T02:22:29;0.10;37.60
47845;DHT22;33605;48.822;8.796;2023-12-04T02:24:54;0.10;37.60
47845;DHT22;33605;48.822;8.796;2023-12-04T02:27:28;0.10;37.60
47845;DHT22;33605;48.822;8.796;2023-12-04T02:29:59;0.10;37.60
47845;DHT22;33605;48.822;8.796;2023-12-04T02:32:28;0.10;37.60
47845;DHT22;33605;48.822;8.796;2023-12-04T02:34:54;0.00;37.50
47845;DHT22;33605;48.822;8.796;2023-12-04T02:37:21;0.00;37.50
47845;DHT22;33605;48.822;8.796;2023-12-04T02:39:48;0.00;37.50
47845;DHT22;33605;48.822;8.796;2023-12-04T02:42:15;0.00;37.50
47845;DHT22;33605;48.822;8.796;2023-12-04T02:44:42;-0.10;37.40
47845;DHT22;33605;48.822;8.796;2023-12-04T02:47:08;-0.10;37.50
47845;DHT22;33605;48.822;8.796;2023-12-04T02:49:34;-0.10;37.50
47845;DHT22;33605;48.822;8.796;2023-12-04T02:51:59;-0.10;37.50
47845;DHT22;33605;48.822;8.796;2023-12-04T02:54:25;-0.10;37.60
47845;DHT22;33605;48.822;8.796;2023-12-04T02:56:51;-0.10;37.70
47845;DHT22;33605;48.822;8.796;2023-12-04T02:59:16;-0.20;37.80
47845;DHT22;33605;48.822;8.796;2023-12-04T03:01:42;-0.20;37.90
47845;DHT22;33605;48.822;8.796;2023-12-04T03:04:08;-0.20;38.00
47845;DHT22;33605;48.822;8.796;2023-12-04T03:06:33;-0.20;38.10
47845;DHT22;33605;48.822;8.796;2023-12-04T03:08:59;-0.20;38.10
47845;DHT22;33605;48.822;8.796;2023-12-04T03:11:25;-0.20;38.10
47845;DHT22;33605;48.822;8.796;2023-12-04T03:13:51;-0.20;38.10
47845;DHT22;33605;48.822;8.796;2023-12-04T03:16:18;-0.10;38.20
47845;DHT22;33605;48.822;8.796;2023-12-04T03:18:44;-0.10;38.20
47845;DHT22;33605;48.822;8.796;2023-12-04T03:21:10;-0.10;38.20
47845;DHT22;33605;48.822;8.796;2023-12-04T03:23:36;0.00;38.30
47845;DHT22;33605;48.822;8.796;2023-12-04T03:26:02;0.00;38.20
47845;DHT22;33605;48.822;8.796;2023-12-04T03:28:28;0.00;38.10
47845;DHT22;33605;48.822;8.796;2023-12-04T03:30:54;0.00;38.00
47845;DHT22;33605;48.822;8.796;2023-12-04T03:33:19;0.10;38.00
47845;DHT22;33605;48.822;8.796;2023-12-04T03:35:45;0.10;37.90
47845;DHT22;33605;48.822;8.796;2023-12-04T03:38:11;0.20;38.00
47845;DHT22;33605;48.822;8.796;2023-12-04T03:40:37;0.20;37.90
47845;DHT22;33605;48.822;8.796;2023-12-04T03:43:03;0.20;37.80
47845;DHT22;33605;48.822;8.796;2023-12-04T03:45:28;0.30;37.80
47845;DHT22;33605;48.822;8.796;2023-12-04T03:47:54;0.30;37.70
47845;DHT22;33605;48.822;8.796;2023-12-04T03:50:20;0.30;37.60
47845;DHT22;33605;48.822;8.796;2023-12-04T03:52:45;0.30;37.60
47845;DHT22;33605;48.822;8.796;2023-12-04T03:55:11;0.20;37.60
47845;DHT22;33605;48.822;8.796;2023-12-04T03:57:36;0.30;37.60
47845;DHT22;33605;48.822;8.796;2023-12-04T04:00:03;0.30;37.50
47845;DHT22;33605;48.822;8.796;2023-12-04T04:02:29;0.30;37.50
47845;DHT22;33605;48.822;8.796;2023-12-04T04:04:55;0.20;37.40
47845;DHT22;33605;48.822;8.796;2023-12-04T04:07:21;0.30;37.50
47845;DHT22;33605;48.822;8.796;2023-12-04T04:09:46;0.20;37.50
47845;DHT22;33605;48.822;8.796;2023-12-04T04:12:12;0.20;37.50
47845;DHT22;33605;48.822;8.796;2023-12-04T04:14:38;0.20;37.60
47845;DHT22;33605;48.822;8.796;2023-12-04T04:17:03;0.20;37.70
47845;DHT22;33605;48.822;8.796;2023-12-04T04:19:29;0.20;38.40
47845;DHT22;33605;48.822;8.796;2023-12-04T04:21:55;0.20;38.00
47845;DHT22;33605;48.822;8.796;2023-12-04T04:24:21;0.20;38.10
47845;DHT22;33605;48.822;8.796;2023-12-04T04:26:47;0.20;38.10
47845;DHT22;33605;48.822;8.796;2023-12-04T04:29:13;0.20;38.20
47845;DHT22;33605;48.822;8.796;2023-12-04T04:31:38;0.20;38.20
47845;DHT22;33605;48.822;8.796;2023-12-04T04:34:04;0.30;38.30
47845;DHT22;33605;48.822;8.796;2023-12-04T04:36:30;0.30;38.20
47845;DHT22;33605;48.822;8.796;2023-12-04T04:38:55;0.30;38.20
47845;DHT22;33605;48.822;8.796;2023-12-04T04:41:21;0.30;38.20
47845;DHT22;33605;48.822;8.796;2023-12-04T04:43:48;0.30;38.30
47845;DHT22;33605;48.822;8.796;2023-12-04T04:46:13;0.40;38.50
47845;DHT22;33605;48.822;8.796;2023-12-04T04:48:42;0.40;38.60
47845;DHT22;33605;48.822;8.796;2023-12-04T04:51:08;0.40;38.60
47845;DHT22;33605;48.822;8.796;2023-12-04T04:53:33;0.40;38.60
47845;DHT22;33605;48.822;8.796;2023-12-04T04:56:02;0.40;38.70
47845;DHT22;33605;48.822;8.796;2023-12-04T04:58:27;0.40;38.70
47845;DHT22;33605;48.822;8.796;2023-12-04T05:00:53;0.50;38.90
47845;DHT22;33605;48.822;8.796;2023-12-04T05:03:18;0.50;38.90
47845;DHT22;33605;48.822;8.796;2023-12-04T05:05:44;0.50;38.90
47845;DHT22;33605;48.822;8.796;2023-12-04T05:08:10;0.60;39.00
47845;DHT22;33605;48.822;8.796;2023-12-04T05:10:37;0.60;39.00
47845;DHT22;33605;48.822;8.796;2023-12-04T05:13:03;0.60;39.00
47845;DHT22;33605;48.822;8.796;2023-12-04T05:15:29;0.60;39.10
47845;DHT22;33605;48.822;8.796;2023-12-04T05:17:55;0.60;39.00
47845;DHT22;33605;48.822;8.796;2023-12-04T05:20:20;0.70;39.00
47845;DHT22;33605;48.822;8.796;2023-12-04T05:22:46;0.70;39.00
47845;DHT22;33605;48.822;8.796;2023-12-04T05:25:11;0.70;38.90
47845;DHT22;33605;48.822;8.796;2023-12-04T05:27:37;0.70;38.90
47845;DHT22;33605;48.822;8.796;2023-12-04T05:30:03;0.70;38.90
47845;DHT22;33605;48.822;8.796;2023-12-04T05:32:29;0.80;39.00
47845;DHT22;33605;48.822;8.796;2023-12-04T05:34:55;0.80;39.00
47845;DHT22;33605;48.822;8.796;2023-12-04T05:37:20;0.80;38.90
47845;DHT22;33605;48.822;8.796;2023-12-04T05:39:46;0.80;38.90
47845;DHT22;33605;48.822;8.796;2023-12-04T05:42:12;0.90;39.00
47845;DHT22;33605;48.822;8.796;2023-12-04T05:44:38;0.90;39.00
47845;DHT22;33605;48.822;8.796;2023-12-04T05:47:03;0.90;38.90
47845;DHT22;33605;48.822;8.796;2023-12-04T05:49:29;0.90;38.90
47845;DHT22;33605;48.822;8.796;2023-12-04T05:51:56;0.90;38.90
47845;DHT22;33605;48.822;8.796;2023-12-04T05:54:21;1.00;39.00
47845;DHT22;33605;48.822;8.796;2023-12-04T05:56:47;1.00;39.60
47845;DHT22;33605;48.822;8.796;2023-12-04T05:59:12;1.00;38.90
47845;DHT22;33605;48.822;8.796;2023-12-04T06:01:38;1.00;38.80
47845;DHT22;33605;48.822;8.796;2023-12-04T06:04:04;1.00;38.70
47845;DHT22;33605;48.822;8.796;2023-12-04T06:06:29;1.10;38.90
47845;DHT22;33605;48.822;8.796;2023-12-04T06:08:55;1.10;38.90
47845;DHT22;33605;48.822;8.796;2023-12-04T06:11:20;1.10;38.90
47845;DHT22;33605;48.822;8.796;2023-12-04T06:13:46;1.20;38.90
47845;DHT22;33605;48.822;8.796;2023-12-04T06:16:12;1.20;38.90
47845;DHT22;33605;48.822;8.796;2023-12-04T06:18:37;1.20;38.90
47845;DHT22;33605;48.822;8.796;2023-12-04T06:21:03;1.20;38.90
47845;DHT22;33605;48.822;8.796;2023-12-04T06:23:30;1.30;39.00
47845;DHT22;33605;48.822;8.796;2023-12-04T06:25:56;1.30;39.00
47845;DHT22;33605;48.822;8.796;2023-12-04T06:28:22;1.30;38.90
47845;DHT22;33605;48.822;8.796;2023-12-04T06:30:48;1.40;39.00
47845;DHT22;33605;48.822;8.796;2023-12-04T06:33:13;1.40;39.00
47845;DHT22;33605;48.822;8.796;2023-12-04T06:35:40;1.50;39.00
47845;DHT22;33605;48.822;8.796;2023-12-04T06:38:07;1.50;39.10
47845;DHT22;33605;48.822;8.796;2023-12-04T06:40:34;1.50;39.20
47845;DHT22;33605;48.822;8.796;2023-12-04T06:43:00;1.60;39.40
47845;DHT22;33605;48.822;8.796;2023-12-04T06:45:26;1.60;39.50
47845;DHT22;33605;48.822;8.796;2023-12-04T06:47:53;1.60;39.50
47845;DHT22;33605;48.822;8.796;2023-12-04T06:50:19;1.60;39.40
47845;DHT22;33605;48.822;8.796;2023-12-04T06:52:45;1.60;39.20
47845;DHT22;33605;48.822;8.796;2023-12-04T06:55:12;1.70;39.30
47845;DHT22;33605;48.822;8.796;2023-12-04T06:57:38;1.70;39.20
47845;DHT22;33605;48.822;8.796;2023-12-04T07:00:04;1.70;39.20
47845;DHT22;33605;48.822;8.796;2023-12-04T07:02:31;1.70;39.20
47845;DHT22;33605;48.822;8.796;2023-12-04T07:04:57;1.70;39.20
47845;DHT22;33605;48.822;8.796;2023-12-04T07:07:23;1.80;39.30
47845;DHT22;33605;48.822;8.796;2023-12-04T07:09:49;1.80;39.30
47845;DHT22;33605;48.822;8.796;2023-12-04T07:12:14;1.80;39.30
47845;DHT22;33605;48.822;8.796;2023-12-04T07:14:40;1.80;39.30
47845;DHT22;33605;48.822;8.796;2023-12-04T07:17:07;1.80;39.30
47845;DHT22;33605;48.822;8.796;2023-12-04T07:19:35;1.90;39.30
47845;DHT22;33605;48.822;8.796;2023-12-04T07:22:01;1.90;39.30
47845;DHT22;33605;48.822;8.796;2023-12-04T07:24:28;1.80;39.30
47845;DHT22;33605;48.822;8.796;2023-12-04T07:26:53;1.90;39.30
47845;DHT22;33605;48.822;8.796;2023-12-04T07:29:19;1.90;39.30
47845;DHT22;33605;48.822;8.796;2023-12-04T07:31:45;1.90;39.30
47845;DHT22;33605;48.822;8.796;2023-12-04T07:34:13;1.90;39.30
47845;DHT22;33605;48.822;8.796;2023-12-04T07:36:39;1.90;39.40
47845;DHT22;33605;48.822;8.796;2023-12-04T07:39:04;1.90;39.40
47845;DHT22;33605;48.822;8.796;2023-12-04T07:41:32;1.90;39.30
47845;DHT22;33605;48.822;8.796;2023-12-04T07:43:57;1.90;39.30
47845;DHT22;33605;48.822;8.796;2023-12-04T07:46:23;1.90;39.30
47845;DHT22;33605;48.822;8.796;2023-12-04T07:48:48;1.90;39.30
47845;DHT22;33605;48.822;8.796;2023-12-04T07:51:14;2.00;39.30
47845;DHT22;33605;48.822;8.796;2023-12-04T07:53:40;1.90;39.30
47845;DHT22;33605;48.822;8.796;2023-12-04T07:56:06;2.00;39.30
47845;DHT22;33605;48.822;8.796;2023-12-04T07:58:32;2.00;39.10
47845;DHT22;33605;48.822;8.796;2023-12-04T08:00:58;2.00;39.00
47845;DHT22;33605;48.822;8.796;2023-12-04T08:03:24;2.00;38.90
47845;DHT22;33605;48.822;8.796;2023-12-04T08:05:53;2.00;39.00
47845;DHT22;33605;48.822;8.796;2023-12-04T08:08:19;2.00;39.10
47845;DHT22;33605;48.822;8.796;2023-12-04T08:10:44;2.00;39.10
47845;DHT22;33605;48.822;8.796;2023-12-04T08:13:10;2.00;39.30
47845;DHT22;33605;48.822;8.796;2023-12-04T08:15:36;2.00;39.30
47845;DHT22;33605;48.822;8.796;2023-12-04T08:18:01;2.00;39.30
47845;DHT22;33605;48.822;8.796;2023-12-04T08:20:28;2.00;39.20
47845;DHT22;33605;48.822;8.796;2023-12-04T08:22:53;2.10;39.30
47845;DHT22;33605;48.822;8.796;2023-12-04T08:25:20;2.10;39.30
47845;DHT22;33605;48.822;8.796;2023-12-04T08:27:46;2.10;39.40
47845;DHT22;33605;48.822;8.796;2023-12-04T08:30:11;2.10;39.40
47845;DHT22;33605;48.822;8.796;2023-12-04T08:32:37;2.10;39.40
47845;DHT22;33605;48.822;8.796;2023-12-04T08:35:03;2.10;39.30
47845;DHT22;33605;48.822;8.796;2023-12-04T08:37:31;2.20;39.50
47845;DHT22;33605;48.822;8.796;2023-12-04T08:39:57;2.20;39.50
47845;DHT22;33605;48.822;8.796;2023-12-04T08:42:22;2.20;39.50
47845;DHT22;33605;48.822;8.796;2023-12-04T08:44:48;2.20;39.40
47845;DHT22;33605;48.822;8.796;2023-12-04T08:47:14;2.30;39.40
47845;DHT22;33605;48.822;8.796;2023-12-04T08:49:43;2.20;39.20
47845;DHT22;33605;48.822;8.796;2023-12-04T08:52:09;2.30;39.30
47845;DHT22;33605;48.822;8.796;2023-12-04T08:54:38;2.30;39.40
47845;DHT22;33605;48.822;8.796;2023-12-04T08:57:04;2.30;39.60
47845;DHT22;33605;48.822;8.796;2023-12-04T08:59:30;2.30;39.70
47845;DHT22;33605;48.822;8.796;2023-12-04T09:01:56;2.30;39.80
47845;DHT22;33605;48.822;8.796;2023-12-04T09:04:21;2.30;39.80
47845;DHT22;33605;48.822;8.796;2023-12-04T09:06:47;2.40;39.90
47845;DHT22;33605;48.822;8.796;2023-12-04T09:09:13;2.40;40.00
47845;DHT22;33605;48.822;8.796;2023-12-04T09:11:44;2.40;40.00
47845;DHT22;33605;48.822;8.796;2023-12-04T09:14:10;2.50;40.00
47845;DHT22;33605;48.822;8.796;2023-12-04T09:16:35;2.50;40.00
47845;DHT22;33605;48.822;8.796;2023-12-04T09:19:01;2.50;40.00
47845;DHT22;33605;48.822;8.796;2023-12-04T09:21:26;2.60;40.10
47845;DHT22;33605;48.822;8.796;2023-12-04T09:23:52;2.60;40.10
47845;DHT22;33605;48.822;8.796;2023-12-04T09:26:18;2.60;40.00
47845;DHT22;33605;48.822;8.796;2023-12-04T09:28:44;2.60;40.00
47845;DHT22;33605;48.822;8.796;2023-12-04T09:31:09;2.70;40.10
47845;DHT22;33605;48.822;8.796;2023-12-04T09:33:35;2.70;40.10
47845;DHT22;33605;48.822;8.796;2023-12-04T09:36:01;2.80;40.70
47845;DHT22;33605;48.822;8.796;2023-12-04T09:38:27;2.80;40.00
47845;DHT22;33605;48.822;8.796;2023-12-04T09:40:53;2.80;40.10
47845;DHT22;33605;48.822;8.796;2023-12-04T09:43:21;2.90;40.60
47845;DHT22;33605;48.822;8.796;2023-12-04T09:45:46;2.90;40.80
47845;DHT22;33605;48.822;8.796;2023-12-04T09:48:12;3.00;41.00
47845;DHT22;33605;48.822;8.796;2023-12-04T09:50:38;3.10;41.00
47845;DHT22;33605;48.822;8.796;2023-12-04T09:53:05;3.10;40.70
47845;DHT22;33605;48.822;8.796;2023-12-04T09:55:31;3.30;40.50
47845;DHT22;33605;48.822;8.796;2023-12-04T09:57:57;3.30;40.10
47845;DHT22;33605;48.822;8.796;2023-12-04T10:00:23;3.40;39.80
47845;DHT22;33605;48.822;8.796;2023-12-04T10:02:49;3.40;39.60
47845;DHT22;33605;48.822;8.796;2023-12-04T10:05:15;3.50;39.70
47845;DHT22;33605;48.822;8.796;2023-12-04T10:07:41;3.60;40.30
47845;DHT22;33605;48.822;8.796;2023-12-04T10:10:06;3.60;40.60
47845;DHT22;33605;48.822;8.796;2023-12-04T10:12:33;3.70;40.60
47845;DHT22;33605;48.822;8.796;2023-12-04T10:15:10;3.70;40.40
47845;DHT22;33605;48.822;8.796;2023-12-04T10:17:38;3.80;40.40
47845;DHT22;33605;48.822;8.796;2023-12-04T10:20:12;3.90;40.40
47845;DHT22;33605;48.822;8.796;2023-12-04T10:22:39;3.90;40.10
47845;DHT22;33605;48.822;8.796;2023-12-04T10:25:16;4.00;40.00
47845;DHT22;33605;48.822;8.796;2023-12-04T10:27:42;4.00;39.80
47845;DHT22;33605;48.822;8.796;2023-12-04T10:30:09;4.10;39.80
47845;DHT22;33605;48.822;8.796;2023-12-04T10:32:40;4.20;39.80
47845;DHT22;33605;48.822;8.796;2023-12-04T10:35:07;4.20;39.60
47845;DHT22;33605;48.822;8.796;2023-12-04T10:37:38;4.30;39.60
47845;DHT22;33605;48.822;8.796;2023-12-04T10:40:05;4.40;39.40
47845;DHT22;33605;48.822;8.796;2023-12-04T10:42:34;4.50;39.40
47845;DHT22;33605;48.822;8.796;2023-12-04T10:45:00;4.50;39.40
47845;DHT22;33605;48.822;8.796;2023-12-04T10:47:29;4.60;39.30
47845;DHT22;33605;48.822;8.796;2023-12-04T10:49:58;4.60;39.10
47845;DHT22;33605;48.822;8.796;2023-12-04T10:52:24;4.70;39.10
47845;DHT22;33605;48.822;8.796;2023-12-04T10:54:50;4.70;38.90
47845;DHT22;33605;48.822;8.796;2023-12-04T10:57:26;4.80;38.90
47845;DHT22;33605;48.822;8.796;2023-12-04T10:59:56;4.80;38.80
47845;DHT22;33605;48.822;8.796;2023-12-04T11:02:25;4.90;38.80
47845;DHT22;33605;48.822;8.796;2023-12-04T11:04:55;4.90;38.70
47845;DHT22;33605;48.822;8.796;2023-12-04T11:07:23;5.00;38.70
47845;DHT22;33605;48.822;8.796;2023-12-04T11:09:49;5.00;38.70
47845;DHT22;33605;48.822;8.796;2023-12-04T11:12:18;5.00;38.70
47845;DHT22;33605;48.822;8.796;2023-12-04T11:14:50;5.10;38.90
47845;DHT22;33605;48.822;8.796;2023-12-04T11:17:19;5.10;38.80
47845;DHT22;33605;48.822;8.796;2023-12-04T11:20:05;5.00;38.70
47845;DHT22;33605;48.822;8.796;2023-12-04T11:22:34;5.10;39.00
47845;DHT22;33605;48.822;8.796;2023-12-04T11:25:01;5.10;39.40
47845;DHT22;33605;48.822;8.796;2023-12-04T11:27:31;5.00;39.90
47845;DHT22;33605;48.822;8.796;2023-12-04T11:29:57;4.90;40.20
47845;DHT22;33605;48.822;8.796;2023-12-04T11:32:24;4.90;40.70
47845;DHT22;33605;48.822;8.796;2023-12-04T11:34:59;4.90;41.20
47845;DHT22;33605;48.822;8.796;2023-12-04T11:37:26;4.90;41.50
47845;DHT22;33605;48.822;8.796;2023-12-04T11:39:51;4.90;41.70
47845;DHT22;33605;48.822;8.796;2023-12-04T11:42:21;4.90;42.00
47845;DHT22;33605;48.822;8.796;2023-12-04T11:44:56;4.90;42.30
47845;DHT22;33605;48.822;8.796;2023-12-04T11:47:22;5.00;42.60
47845;DHT22;33605;48.822;8.796;2023-12-04T11:49:48;5.10;42.80
47845;DHT22;33605;48.822;8.796;2023-12-04T11:52:13;5.10;42.80
47845;DHT22;33605;48.822;8.796;2023-12-04T11:54:59;5.20;42.90
47845;DHT22;33605;48.822;8.796;2023-12-04T11:57:25;5.30;42.90
47845;DHT22;33605;48.822;8.796;2023-12-04T11:59:52;5.30;42.80
47845;DHT22;33605;48.822;8.796;2023-12-04T12:02:17;5.40;42.90
47845;DHT22;33605;48.822;8.796;2023-12-04T12:04:44;5.40;43.00
47845;DHT22;33605;48.822;8.796;2023-12-04T12:07:11;5.50;43.10
47845;DHT22;33605;48.822;8.796;2023-12-04T12:09:37;5.50;43.20
47845;DHT22;33605;48.822;8.796;2023-12-04T12:12:04;5.60;43.30
47845;DHT22;33605;48.822;8.796;2023-12-04T12:14:30;5.60;43.30
47845;DHT22;33605;48.822;8.796;2023-12-04T12:16:59;5.70;43.40
47845;DHT22;33605;48.822;8.796;2023-12-04T12:19:26;5.70;44.00
47845;DHT22;33605;48.822;8.796;2023-12-04T12:21:52;5.80;43.50
47845;DHT22;33605;48.822;8.796;2023-12-04T12:24:18;5.80;43.50
47845;DHT22;33605;48.822;8.796;2023-12-04T12:26:44;5.80;43.50
47845;DHT22;33605;48.822;8.796;2023-12-04T12:29:11;5.80;43.60
47845;DHT22;33605;48.822;8.796;2023-12-04T12:31:37;5.80;43.60
47845;DHT22;33605;48.822;8.796;2023-12-04T12:34:03;5.80;43.70
47845;DHT22;33605;48.822;8.796;2023-12-04T12:36:29;5.90;44.00
47845;DHT22;33605;48.822;8.796;2023-12-04T12:38:57;5.90;44.10
47845;DHT22;33605;48.822;8.796;2023-12-04T12:41:23;5.90;44.20
47845;DHT22;33605;48.822;8.796;2023-12-04T12:43:51;5.90;44.30
47845;DHT22;33605;48.822;8.796;2023-12-04T12:46:18;5.90;44.40
47845;DHT22;33605;48.822;8.796;2023-12-04T12:48:44;5.90;44.60
47845;DHT22;33605;48.822;8.796;2023-12-04T12:51:12;5.90;44.50
47845;DHT22;33605;48.822;8.796;2023-12-04T12:53:39;5.90;44.60
47845;DHT22;33605;48.822;8.796;2023-12-04T12:56:05;5.90;44.70
47845;DHT22;33605;48.822;8.796;2023-12-04T12:58:31;5.90;44.80
47845;DHT22;33605;48.822;8.796;2023-12-04T13:00:57;5.80;44.90
47845;DHT22;33605;48.822;8.796;2023-12-04T13:03:22;5.80;45.10
47845;DHT22;33605;48.822;8.796;2023-12-04T13:05:48;5.70;45.20
47845;DHT22;33605;48.822;8.796;2023-12-04T13:08:14;5.70;45.30
47845;DHT22;33605;48.822;8.796;2023-12-04T13:10:43;5.60;45.30
47845;DHT22;33605;48.822;8.796;2023-12-04T13:13:13;5.60;45.60
47845;DHT22;33605;48.822;8.796;2023-12-04T13:15:39;5.50;45.70
47845;DHT22;33605;48.822;8.796;2023-12-04T13:18:06;5.40;45.70
47845;DHT22;33605;48.822;8.796;2023-12-04T13:20:32;5.40;45.80
47845;DHT22;33605;48.822;8.796;2023-12-04T13:22:58;5.30;45.80
47845;DHT22;33605;48.822;8.796;2023-12-04T13:25:23;5.30;46.10
47845;DHT22;33605;48.822;8.796;2023-12-04T13:27:49;5.20;46.10
47845;DHT22;33605;48.822;8.796;2023-12-04T13:30:15;5.10;46.20
47845;DHT22;33605;48.822;8.796;2023-12-04T13:32:42;5.10;46.20
47845;DHT22;33605;48.822;8.796;2023-12-04T13:35:08;5.00;46.20
47845;DHT22;33605;48.822;8.796;2023-12-04T13:37:34;5.00;46.30
47845;DHT22;33605;48.822;8.796;2023-12-04T13:40:02;5.00;46.40
47845;DHT22;33605;48.822;8.796;2023-12-04T13:42:41;4.90;46.20
47845;DHT22;33605;48.822;8.796;2023-12-04T13:45:25;4.90;46.30
47845;DHT22;33605;48.822;8.796;2023-12-04T13:47:51;4.80;46.20
47845;DHT22;33605;48.822;8.796;2023-12-04T13:50:17;4.80;46.30
47845;DHT22;33605;48.822;8.796;2023-12-04T13:52:43;4.80;46.40
47845;DHT22;33605;48.822;8.796;2023-12-04T13:55:10;4.70;46.20
47845;DHT22;33605;48.822;8.796;2023-12-04T13:57:46;4.70;46.30
47845;DHT22;33605;48.822;8.796;2023-12-04T14:00:25;4.70;46.20
47845;DHT22;33605;48.822;8.796;2023-12-04T14:02:50;4.70;46.20
47845;DHT22;33605;48.822;8.796;2023-12-04T14:05:25;4.70;46.10
47845;DHT22;33605;48.822;8.796;2023-12-04T14:07:51;4.70;46.10
47845;DHT22;33605;48.822;8.796;2023-12-04T14:10:17;4.70;46.30
47845;DHT22;33605;48.822;8.796;2023-12-04T14:12:43;4.70;46.30
47845;DHT22;33605;48.822;8.796;2023-12-04T14:15:09;4.70;46.40
47845;DHT22;33605;48.822;8.796;2023-12-04T14:17:35;4.70;46.40
47845;DHT22;33605;48.822;8.796;2023-12-04T14:20:02;4.80;46.50
47845;DHT22;33605;48.822;8.796;2023-12-04T14:22:36;4.80;46.40
47845;DHT22;33605;48.822;8.796;2023-12-04T14:25:02;4.80;46.40
47845;DHT22;33605;48.822;8.796;2023-12-04T14:27:28;4.80;46.30
47845;DHT22;33605;48.822;8.796;2023-12-04T14:29:53;4.80;46.20
47845;DHT22;33605;48.822;8.796;2023-12-04T14:32:19;4.80;46.10
47845;DHT22;33605;48.822;8.796;2023-12-04T14:34:45;4.90;46.20
47845;DHT22;33605;48.822;8.796;2023-12-04T14:37:11;4.90;46.20
47845;DHT22;33605;48.822;8.796;2023-12-04T14:39:36;4.90;45.90
47845;DHT22;33605;48.822;8.796;2023-12-04T14:42:02;4.90;45.50
47845;DHT22;33605;48.822;8.796;2023-12-04T14:44:28;4.90;45.20
47845;DHT22;33605;48.822;8.796;2023-12-04T14:46:53;4.90;44.90
47845;DHT22;33605;48.822;8.796;2023-12-04T14:49:19;4.90;44.80
47845;DHT22;33605;48.822;8.796;2023-12-04T14:51:44;4.90;44.50
47845;DHT22;33605;48.822;8.796;2023-12-04T14:54:14;4.90;44.50
47845;DHT22;33605;48.822;8.796;2023-12-04T14:57:04;4.80;44.60
47845;DHT22;33605;48.822;8.796;2023-12-04T14:59:50;4.80;44.90
47845;DHT22;33605;48.822;8.796;2023-12-04T15:02:35;4.80;45.20
47845;DHT22;33605;48.822;8.796;2023-12-04T15:05:13;4.70;45.40
47845;DHT22;33605;48.822;8.796;2023-12-04T15:07:59;4.70;45.60
47845;DHT22;33605;48.822;8.796;2023-12-04T15:10:43;4.70;46.00
47845;DHT22;33605;48.822;8.796;2023-12-04T15:13:27;4.60;45.90
47845;DHT22;33605;48.822;8.796;2023-12-04T15:16:08;4.60;46.20
47845;DHT22;33605;48.822;8.796;2023-12-04T15:18:51;4.60;46.20
47845;DHT22;33605;48.822;8.796;2023-12-04T15:21:39;4.60;46.20
47845;DHT22;33605;48.822;8.796;2023-12-04T15:24:07;4.50;46.30
47845;DHT22;33605;48.822;8.796;2023-12-04T15:26:33;4.50;46.50
47845;DHT22;33605;48.822;8.796;2023-12-04T15:28:59;4.50;46.60
47845;DHT22;33605;48.822;8.796;2023-12-04T15:31:25;4.50;46.60
47845;DHT22;33605;48.822;8.796;2023-12-04T15:33:51;4.50;46.50
47845;DHT22;33605;48.822;8.796;2023-12-04T15:36:17;4.50;46.40
47845;DHT22;33605;48.822;8.796;2023-12-04T15:38:47;4.50;46.30
47845;DHT22;33605;48.822;8.796;2023-12-04T15:41:13;4.50;46.00
47845;DHT22;33605;48.822;8.796;2023-12-04T15:43:39;4.50;45.90